sensor_id;sensor_type;location;lat;lon;timestamp;P1;durP1;ratioP1;P2;durP2;ratioP2
77586;SDS011;66744;49.716;17.158;2023-01-20T00:00:00;25.58;;;18.92;;
77586;SDS011;66744;49.716;17.158;2023-01-20T00:00:06;25.96;;;19.16;;
77586;SDS011;66744;49.716;17.158;2023-01-20T00:00:19;25.81;;;19.60;;
77586;SDS011;66744;49.716;17.158;2023-01-20T00:00:44;24.41;;;18.83;;
77586;SDS011;66744;49.716;17.158;2023-01-20T00:01:10;25.63;;;19.09;;
77586;SDS011;66744;49.716;17.158;2023-01-20T00:01:17;29.02;;;20.85;;
77586;SDS011;66744;49.716;17.158;2023-01-20T00:01:23;29.08;;;20.96;;
77586;SDS011;66744;49.716;17.158;2023-01-20T00:01:31;28.66;;;20.74;;
77586;SDS011;66744;49.716;17.158;2023-01-20T00:01:38;27.78;;;20.46;;
77586;SDS011;66744;49.716;17.158;2023-01-20T00:01:53;26.71;;;20.41;;
77586;SDS011;66744;49.716;17.158;2023-01-20T00:01:59;26.10;;;20.04;;
77586;SDS011;66744;49.716;17.158;2023-01-20T00:02:05;25.27;;;19.83;;
77586;SDS011;66744;49.716;17.158;2023-01-20T00:02:11;25.75;;;19.67;;
77586;SDS011;66744;49.716;17.158;2023-01-20T00:02:18;26.46;;;19.48;;
77586;SDS011;66744;49.716;17.158;2023-01-20T00:02:24;25.40;;;19.08;;
77586;SDS011;66744;49.716;17.158;2023-01-20T00:02:31;26.23;;;19.13;;
77586;SDS011;66744;49.716;17.158;2023-01-20T00:02:37;28.14;;;19.28;;
77586;SDS011;66744;49.716;17.158;2023-01-20T00:02:43;28.25;;;19.02;;
77586;SDS011;66744;49.716;17.158;2023-01-20T00:02:50;27.23;;;18.23;;
77586;SDS011;66744;49.716;17.158;2023-01-20T00:02:56;27.26;;;18.10;;
77586;SDS011;66744;49.716;17.158;2023-01-20T00:03:02;26.25;;;17.38;;
77586;SDS011;66744;49.716;17.158;2023-01-20T00:03:09;24.63;;;16.98;;
77586;SDS011;66744;49.716;17.158;2023-01-20T00:03:15;25.33;;;17.42;;
77586;SDS011;66744;49.716;17.158;2023-01-20T00:03:21;26.18;;;18.40;;
77586;SDS011;66744;49.716;17.158;2023-01-20T00:03:27;26.05;;;19.17;;
77586;SDS011;66744;49.716;17.158;2023-01-20T00:03:34;27.13;;;20.33;;
77586;SDS011;66744;49.716;17.158;2023-01-20T00:03:41;27.22;;;20.48;;
77586;SDS011;66744;49.716;17.158;2023-01-20T00:03:47;27.20;;;20.80;;
77586;SDS011;66744;49.716;17.158;2023-01-20T00:03:55;27.74;;;20.66;;
77586;SDS011;66744;49.716;17.158;2023-01-20T00:04:02;27.92;;;20.74;;
77586;SDS011;66744;49.716;17.158;2023-01-20T00:04:09;27.38;;;20.22;;
77586;SDS011;66744;49.716;17.158;2023-01-20T00:04:15;26.34;;;19.44;;
77586;SDS011;66744;49.716;17.158;2023-01-20T00:04:25;25.26;;;18.86;;
77586;SDS011;66744;49.716;17.158;2023-01-20T00:04:31;24.38;;;18.33;;
77586;SDS011;66744;49.716;17.158;2023-01-20T00:04:37;24.38;;;18.65;;
77586;SDS011;66744;49.716;17.158;2023-01-20T00:04:43;25.48;;;19.38;;
77586;SDS011;66744;49.716;17.158;2023-01-20T00:04:49;26.73;;;19.67;;
77586;SDS011;66744;49.716;17.158;2023-01-20T00:04:56;26.98;;;19.80;;
77586;SDS011;66744;49.716;17.158;2023-01-20T00:05:02;28.05;;;20.17;;
77586;SDS011;66744;49.716;17.158;2023-01-20T00:05:08;28.34;;;19.94;;
77586;SDS011;66744;49.716;17.158;2023-01-20T00:05:15;28.42;;;19.52;;
77586;SDS011;66744;49.716;17.158;2023-01-20T00:05:21;28.70;;;19.58;;
77586;SDS011;66744;49.716;17.158;2023-01-20T00:05:27;29.65;;;19.90;;
77586;SDS011;66744;49.716;17.158;2023-01-20T00:05:33;27.94;;;19.26;;
77586;SDS011;66744;49.716;17.158;2023-01-20T00:05:48;27.60;;;19.23;;
77586;SDS011;66744;49.716;17.158;2023-01-20T00:05:55;27.09;;;19.30;;
77586;SDS011;66744;49.716;17.158;2023-01-20T00:06:02;26.75;;;19.42;;
77586;SDS011;66744;49.716;17.158;2023-01-20T00:06:08;27.27;;;19.20;;
77586;SDS011;66744;49.716;17.158;2023-01-20T00:06:14;26.06;;;18.94;;
77586;SDS011;66744;49.716;17.158;2023-01-20T00:06:21;26.05;;;18.95;;
77586;SDS011;66744;49.716;17.158;2023-01-20T00:06:28;25.54;;;18.44;;
77586;SDS011;66744;49.716;17.158;2023-01-20T00:06:35;25.04;;;17.86;;
77586;SDS011;66744;49.716;17.158;2023-01-20T00:06:41;25.20;;;17.85;;
77586;SDS011;66744;49.716;17.158;2023-01-20T00:06:47;26.30;;;18.33;;
77586;SDS011;66744;49.716;17.158;2023-01-20T00:06:53;26.95;;;18.60;;
77586;SDS011;66744;49.716;17.158;2023-01-20T00:07:00;26.92;;;19.08;;
77586;SDS011;66744;49.716;17.158;2023-01-20T00:07:06;26.52;;;19.25;;
77586;SDS011;66744;49.716;17.158;2023-01-20T00:07:12;27.13;;;19.83;;
77586;SDS011;66744;49.716;17.158;2023-01-20T00:07:18;27.48;;;19.75;;
77586;SDS011;66744;49.716;17.158;2023-01-20T00:07:25;27.52;;;19.96;;
77586;SDS011;66744;49.716;17.158;2023-01-20T00:07:31;28.10;;;20.17;;
77586;SDS011;66744;49.716;17.158;2023-01-20T00:07:39;28.45;;;20.27;;
77586;SDS011;66744;49.716;17.158;2023-01-20T00:07:45;27.60;;;20.23;;
77586;SDS011;66744;49.716;17.158;2023-01-20T00:07:52;27.60;;;19.96;;
77586;SDS011;66744;49.716;17.158;2023-01-20T00:07:58;27.75;;;19.65;;
77586;SDS011;66744;49.716;17.158;2023-01-20T00:08:04;27.58;;;19.35;;
77586;SDS011;66744;49.716;17.158;2023-01-20T00:08:11;27.68;;;19.42;;
77586;SDS011;66744;49.716;17.158;2023-01-20T00:08:17;28.23;;;19.85;;
77586;SDS011;66744;49.716;17.158;2023-01-20T00:08:23;29.02;;;20.20;;
77586;SDS011;66744;49.716;17.158;2023-01-20T00:08:29;29.58;;;20.52;;
77586;SDS011;66744;49.716;17.158;2023-01-20T00:08:35;30.55;;;20.52;;
77586;SDS011;66744;49.716;17.158;2023-01-20T00:08:42;29.54;;;19.96;;
77586;SDS011;66744;49.716;17.158;2023-01-20T00:08:49;27.27;;;19.05;;
77586;SDS011;66744;49.716;17.158;2023-01-20T00:08:59;25.63;;;18.91;;
77586;SDS011;66744;49.716;17.158;2023-01-20T00:09:11;25.00;;;19.00;;
77586;SDS011;66744;49.716;17.158;2023-01-20T00:09:19;25.84;;;19.25;;
77586;SDS011;66744;49.716;17.158;2023-01-20T00:09:25;26.23;;;19.10;;
77586;SDS011;66744;49.716;17.158;2023-01-20T00:09:31;26.73;;;19.52;;
77586;SDS011;66744;49.716;17.158;2023-01-20T00:09:38;26.63;;;19.60;;
77586;SDS011;66744;49.716;17.158;2023-01-20T00:09:44;26.90;;;19.90;;
77586;SDS011;66744;49.716;17.158;2023-01-20T00:09:50;27.83;;;20.40;;
77586;SDS011;66744;49.716;17.158;2023-01-20T00:09:56;28.60;;;20.25;;
77586;SDS011;66744;49.716;17.158;2023-01-20T00:10:02;28.55;;;20.05;;
77586;SDS011;66744;49.716;17.158;2023-01-20T00:10:09;28.08;;;19.70;;
77586;SDS011;66744;49.716;17.158;2023-01-20T00:10:16;27.28;;;19.08;;
77586;SDS011;66744;49.716;17.158;2023-01-20T00:10:22;26.48;;;18.90;;
77586;SDS011;66744;49.716;17.158;2023-01-20T00:10:29;25.40;;;19.26;;
77586;SDS011;66744;49.716;17.158;2023-01-20T00:10:35;24.55;;;19.05;;
77586;SDS011;66744;49.716;17.158;2023-01-20T00:10:42;26.50;;;19.83;;
77586;SDS011;66744;49.716;17.158;2023-01-20T00:10:48;28.36;;;20.06;;
77586;SDS011;66744;49.716;17.158;2023-01-20T00:10:54;28.38;;;19.85;;
77586;SDS011;66744;49.716;17.158;2023-01-20T00:11:04;28.73;;;19.63;;
77586;SDS011;66744;49.716;17.158;2023-01-20T00:11:14;28.70;;;19.48;;
77586;SDS011;66744;49.716;17.158;2023-01-20T00:11:20;26.46;;;18.32;;
77586;SDS011;66744;49.716;17.158;2023-01-20T00:11:27;26.50;;;18.27;;
77586;SDS011;66744;49.716;17.158;2023-01-20T00:11:33;25.64;;;18.44;;
77586;SDS011;66744;49.716;17.158;2023-01-20T00:11:39;25.88;;;18.73;;
77586;SDS011;66744;49.716;17.158;2023-01-20T00:11:46;26.73;;;19.67;;
77586;SDS011;66744;49.716;17.158;2023-01-20T00:11:52;26.42;;;19.86;;
77586;SDS011;66744;49.716;17.158;2023-01-20T00:11:58;26.25;;;19.55;;
77586;SDS011;66744;49.716;17.158;2023-01-20T00:12:05;28.00;;;19.50;;
77586;SDS011;66744;49.716;17.158;2023-01-20T00:12:11;28.17;;;19.40;;
77586;SDS011;66744;49.716;17.158;2023-01-20T00:12:17;27.74;;;18.98;;
77586;SDS011;66744;49.716;17.158;2023-01-20T00:12:23;28.40;;;19.13;;
77586;SDS011;66744;49.716;17.158;2023-01-20T00:12:30;29.10;;;19.00;;
77586;SDS011;66744;49.716;17.158;2023-01-20T00:12:36;26.98;;;18.54;;
77586;SDS011;66744;49.716;17.158;2023-01-20T00:12:43;27.40;;;18.45;;
77586;SDS011;66744;49.716;17.158;2023-01-20T00:12:49;26.60;;;18.05;;
77586;SDS011;66744;49.716;17.158;2023-01-20T00:12:55;26.04;;;18.18;;
77586;SDS011;66744;49.716;17.158;2023-01-20T00:13:01;24.95;;;18.63;;
77586;SDS011;66744;49.716;17.158;2023-01-20T00:13:07;25.25;;;18.98;;
77586;SDS011;66744;49.716;17.158;2023-01-20T00:13:14;24.50;;;19.10;;
77586;SDS011;66744;49.716;17.158;2023-01-20T00:13:20;24.77;;;19.25;;
77586;SDS011;66744;49.716;17.158;2023-01-20T00:13:26;25.74;;;19.60;;
77586;SDS011;66744;49.716;17.158;2023-01-20T00:13:33;25.73;;;19.42;;
77586;SDS011;66744;49.716;17.158;2023-01-20T00:13:40;25.80;;;19.42;;
77586;SDS011;66744;49.716;17.158;2023-01-20T00:13:46;26.30;;;19.32;;
77586;SDS011;66744;49.716;17.158;2023-01-20T00:13:53;26.38;;;19.67;;
77586;SDS011;66744;49.716;17.158;2023-01-20T00:14:01;26.75;;;19.35;;
77586;SDS011;66744;49.716;17.158;2023-01-20T00:14:08;26.76;;;19.32;;
77586;SDS011;66744;49.716;17.158;2023-01-20T00:14:14;27.08;;;19.72;;
77586;SDS011;66744;49.716;17.158;2023-01-20T00:14:21;28.00;;;19.48;;
77586;SDS011;66744;49.716;17.158;2023-01-20T00:14:29;27.94;;;19.39;;
77586;SDS011;66744;49.716;17.158;2023-01-20T00:14:36;28.48;;;19.27;;
77586;SDS011;66744;49.716;17.158;2023-01-20T00:14:42;28.08;;;18.83;;
77586;SDS011;66744;49.716;17.158;2023-01-20T00:14:48;26.75;;;18.10;;
77586;SDS011;66744;49.716;17.158;2023-01-20T00:14:54;26.46;;;17.92;;
77586;SDS011;66744;49.716;17.158;2023-01-20T00:15:00;24.83;;;17.10;;
77586;SDS011;66744;49.716;17.158;2023-01-20T00:15:07;24.50;;;17.15;;
77586;SDS011;66744;49.716;17.158;2023-01-20T00:15:15;25.08;;;17.83;;
77586;SDS011;66744;49.716;17.158;2023-01-20T00:15:21;25.58;;;17.70;;
77586;SDS011;66744;49.716;17.158;2023-01-20T00:15:27;25.65;;;17.80;;
77586;SDS011;66744;49.716;17.158;2023-01-20T00:15:33;25.70;;;18.15;;
77586;SDS011;66744;49.716;17.158;2023-01-20T00:15:40;25.32;;;17.44;;
77586;SDS011;66744;49.716;17.158;2023-01-20T00:15:46;25.23;;;17.15;;
77586;SDS011;66744;49.716;17.158;2023-01-20T00:15:53;25.78;;;17.82;;
77586;SDS011;66744;49.716;17.158;2023-01-20T00:16:03;26.38;;;18.38;;
77586;SDS011;66744;49.716;17.158;2023-01-20T00:16:10;26.51;;;18.47;;
77586;SDS011;66744;49.716;17.158;2023-01-20T00:16:17;25.85;;;18.75;;
77586;SDS011;66744;49.716;17.158;2023-01-20T00:16:23;24.52;;;18.25;;
77586;SDS011;66744;49.716;17.158;2023-01-20T00:16:30;23.54;;;17.84;;
77586;SDS011;66744;49.716;17.158;2023-01-20T00:16:37;23.02;;;17.88;;
77586;SDS011;66744;49.716;17.158;2023-01-20T00:16:43;22.63;;;17.52;;
77586;SDS011;66744;49.716;17.158;2023-01-20T00:16:49;22.88;;;17.70;;
77586;SDS011;66744;49.716;17.158;2023-01-20T00:16:56;23.02;;;17.82;;
77586;SDS011;66744;49.716;17.158;2023-01-20T00:17:02;23.70;;;17.85;;
77586;SDS011;66744;49.716;17.158;2023-01-20T00:17:08;26.20;;;18.30;;
77586;SDS011;66744;49.716;17.158;2023-01-20T00:17:14;27.36;;;18.68;;
77586;SDS011;66744;49.716;17.158;2023-01-20T00:17:21;27.67;;;18.63;;
77586;SDS011;66744;49.716;17.158;2023-01-20T00:17:27;29.25;;;18.65;;
77586;SDS011;66744;49.716;17.158;2023-01-20T00:17:34;28.72;;;18.62;;
77586;SDS011;66744;49.716;17.158;2023-01-20T00:17:40;26.90;;;18.50;;
77586;SDS011;66744;49.716;17.158;2023-01-20T00:17:46;27.30;;;18.20;;
77586;SDS011;66744;49.716;17.158;2023-01-20T00:17:52;26.15;;;17.67;;
77586;SDS011;66744;49.716;17.158;2023-01-20T00:17:58;25.35;;;17.63;;
77586;SDS011;66744;49.716;17.158;2023-01-20T00:18:05;24.82;;;17.52;;
77586;SDS011;66744;49.716;17.158;2023-01-20T00:18:11;24.48;;;17.63;;
77586;SDS011;66744;49.716;17.158;2023-01-20T00:18:17;24.67;;;18.05;;
77586;SDS011;66744;49.716;17.158;2023-01-20T00:18:23;26.70;;;18.95;;
77586;SDS011;66744;49.716;17.158;2023-01-20T00:18:29;26.45;;;19.08;;
77586;SDS011;66744;49.716;17.158;2023-01-20T00:18:36;26.48;;;18.92;;
77586;SDS011;66744;49.716;17.158;2023-01-20T00:18:43;26.06;;;18.38;;
77586;SDS011;66744;49.716;17.158;2023-01-20T00:18:49;25.73;;;17.73;;
77586;SDS011;66744;49.716;17.158;2023-01-20T00:18:56;24.90;;;17.12;;
77586;SDS011;66744;49.716;17.158;2023-01-20T00:19:02;25.08;;;16.85;;
77586;SDS011;66744;49.716;17.158;2023-01-20T00:19:11;25.06;;;17.00;;
77586;SDS011;66744;49.716;17.158;2023-01-20T00:19:19;24.88;;;17.16;;
77586;SDS011;66744;49.716;17.158;2023-01-20T00:19:26;25.45;;;17.52;;
77586;SDS011;66744;49.716;17.158;2023-01-20T00:19:32;25.88;;;17.58;;
77586;SDS011;66744;49.716;17.158;2023-01-20T00:19:38;26.88;;;17.63;;
77586;SDS011;66744;49.716;17.158;2023-01-20T00:19:44;27.63;;;18.17;;
77586;SDS011;66744;49.716;17.158;2023-01-20T00:19:51;27.96;;;18.78;;
77586;SDS011;66744;49.716;17.158;2023-01-20T00:19:57;28.00;;;19.15;;
77586;SDS011;66744;49.716;17.158;2023-01-20T00:20:03;28.20;;;19.85;;
77586;SDS011;66744;49.716;17.158;2023-01-20T00:20:10;28.40;;;19.82;;
77586;SDS011;66744;49.716;17.158;2023-01-20T00:20:17;27.38;;;18.85;;
77586;SDS011;66744;49.716;17.158;2023-01-20T00:20:23;27.52;;;18.24;;
77586;SDS011;66744;49.716;17.158;2023-01-20T00:20:29;27.98;;;17.98;;
77586;SDS011;66744;49.716;17.158;2023-01-20T00:20:35;28.00;;;17.92;;
77586;SDS011;66744;49.716;17.158;2023-01-20T00:20:42;26.34;;;17.86;;
77586;SDS011;66744;49.716;17.158;2023-01-20T00:20:48;26.20;;;18.05;;
77586;SDS011;66744;49.716;17.158;2023-01-20T00:20:54;26.35;;;18.63;;
77586;SDS011;66744;49.716;17.158;2023-01-20T00:21:04;26.12;;;19.14;;
77586;SDS011;66744;49.716;17.158;2023-01-20T00:21:12;26.83;;;18.89;;
77586;SDS011;66744;49.716;17.158;2023-01-20T00:21:21;27.06;;;19.08;;
77586;SDS011;66744;49.716;17.158;2023-01-20T00:21:28;26.77;;;18.85;;
77586;SDS011;66744;49.716;17.158;2023-01-20T00:21:34;26.74;;;18.70;;
77586;SDS011;66744;49.716;17.158;2023-01-20T00:21:40;25.70;;;18.83;;
77586;SDS011;66744;49.716;17.158;2023-01-20T00:21:47;25.46;;;18.84;;
77586;SDS011;66744;49.716;17.158;2023-01-20T00:21:53;25.33;;;18.98;;
77586;SDS011;66744;49.716;17.158;2023-01-20T00:22:00;23.65;;;18.55;;
77586;SDS011;66744;49.716;17.158;2023-01-20T00:22:06;24.22;;;18.86;;
77586;SDS011;66744;49.716;17.158;2023-01-20T00:22:12;24.15;;;19.05;;
77586;SDS011;66744;49.716;17.158;2023-01-20T00:22:19;24.75;;;19.05;;
77586;SDS011;66744;49.716;17.158;2023-01-20T00:22:26;24.82;;;18.83;;
77586;SDS011;66744;49.716;17.158;2023-01-20T00:22:32;24.52;;;18.35;;
77586;SDS011;66744;49.716;17.158;2023-01-20T00:22:39;24.05;;;17.98;;
77586;SDS011;66744;49.716;17.158;2023-01-20T00:22:47;23.33;;;17.55;;
77586;SDS011;66744;49.716;17.158;2023-01-20T00:22:53;25.30;;;17.55;;
77586;SDS011;66744;49.716;17.158;2023-01-20T00:22:59;25.48;;;17.66;;
77586;SDS011;66744;49.716;17.158;2023-01-20T00:23:05;25.58;;;17.70;;
77586;SDS011;66744;49.716;17.158;2023-01-20T00:23:11;26.60;;;18.13;;
77586;SDS011;66744;49.716;17.158;2023-01-20T00:23:17;27.52;;;18.27;;
77586;SDS011;66744;49.716;17.158;2023-01-20T00:23:24;25.10;;;18.08;;
77586;SDS011;66744;49.716;17.158;2023-01-20T00:23:30;25.42;;;18.15;;
77586;SDS011;66744;49.716;17.158;2023-01-20T00:23:36;25.16;;;18.08;;
77586;SDS011;66744;49.716;17.158;2023-01-20T00:23:44;24.52;;;17.94;;
77586;SDS011;66744;49.716;17.158;2023-01-20T00:23:51;24.37;;;17.87;;
77586;SDS011;66744;49.716;17.158;2023-01-20T00:23:57;24.55;;;17.88;;
77586;SDS011;66744;49.716;17.158;2023-01-20T00:24:04;24.17;;;17.83;;
77586;SDS011;66744;49.716;17.158;2023-01-20T00:24:11;23.48;;;17.66;;
77586;SDS011;66744;49.716;17.158;2023-01-20T00:24:17;24.95;;;18.40;;
77586;SDS011;66744;49.716;17.158;2023-01-20T00:24:23;24.94;;;18.64;;
77586;SDS011;66744;49.716;17.158;2023-01-20T00:24:29;24.17;;;18.30;;
77586;SDS011;66744;49.716;17.158;2023-01-20T00:24:35;24.70;;;18.15;;
77586;SDS011;66744;49.716;17.158;2023-01-20T00:24:42;25.23;;;17.83;;
77586;SDS011;66744;49.716;17.158;2023-01-20T00:24:48;23.95;;;16.63;;
77586;SDS011;66744;49.716;17.158;2023-01-20T00:24:54;23.32;;;16.04;;
77586;SDS011;66744;49.716;17.158;2023-01-20T00:25:00;23.27;;;15.90;;
77586;SDS011;66744;49.716;17.158;2023-01-20T00:25:08;23.17;;;15.90;;
77586;SDS011;66744;49.716;17.158;2023-01-20T00:25:15;22.23;;;16.26;;
77586;SDS011;66744;49.716;17.158;2023-01-20T00:25:22;22.25;;;16.77;;
77586;SDS011;66744;49.716;17.158;2023-01-20T00:25:28;22.35;;;16.65;;
77586;SDS011;66744;49.716;17.158;2023-01-20T00:25:34;22.60;;;16.88;;
77586;SDS011;66744;49.716;17.158;2023-01-20T00:25:41;22.22;;;16.88;;
77586;SDS011;66744;49.716;17.158;2023-01-20T00:25:47;22.50;;;16.77;;
77586;SDS011;66744;49.716;17.158;2023-01-20T00:25:53;22.24;;;16.52;;
77586;SDS011;66744;49.716;17.158;2023-01-20T00:26:06;22.48;;;16.88;;
77586;SDS011;66744;49.716;17.158;2023-01-20T00:26:15;21.54;;;16.48;;
77586;SDS011;66744;49.716;17.158;2023-01-20T00:26:23;20.62;;;16.18;;
77586;SDS011;66744;49.716;17.158;2023-01-20T00:26:29;20.20;;;16.02;;
77586;SDS011;66744;49.716;17.158;2023-01-20T00:26:36;19.77;;;16.13;;
77586;SDS011;66744;49.716;17.158;2023-01-20T00:26:42;20.92;;;16.52;;
77586;SDS011;66744;49.716;17.158;2023-01-20T00:26:48;20.85;;;16.73;;
77586;SDS011;66744;49.716;17.158;2023-01-20T00:26:54;19.92;;;15.85;;
77586;SDS011;66744;49.716;17.158;2023-01-20T00:27:00;19.94;;;16.02;;
77586;SDS011;66744;49.716;17.158;2023-01-20T00:27:07;20.73;;;16.38;;
77586;SDS011;66744;49.716;17.158;2023-01-20T00:27:13;20.60;;;16.38;;
77586;SDS011;66744;49.716;17.158;2023-01-20T00:27:21;22.33;;;16.60;;
77586;SDS011;66744;49.716;17.158;2023-01-20T00:27:27;23.13;;;17.02;;
77586;SDS011;66744;49.716;17.158;2023-01-20T00:27:33;23.02;;;16.67;;
77586;SDS011;66744;49.716;17.158;2023-01-20T00:27:39;22.44;;;15.90;;
77586;SDS011;66744;49.716;17.158;2023-01-20T00:27:46;21.92;;;15.57;;
77586;SDS011;66744;49.716;17.158;2023-01-20T00:27:52;20.30;;;14.82;;
77586;SDS011;66744;49.716;17.158;2023-01-20T00:27:59;20.38;;;14.92;;
77586;SDS011;66744;49.716;17.158;2023-01-20T00:28:06;19.78;;;14.92;;
77586;SDS011;66744;49.716;17.158;2023-01-20T00:28:12;19.60;;;15.13;;
77586;SDS011;66744;49.716;17.158;2023-01-20T00:28:18;19.58;;;15.38;;
77586;SDS011;66744;49.716;17.158;2023-01-20T00:28:24;20.48;;;16.16;;
77586;SDS011;66744;49.716;17.158;2023-01-20T00:28:31;20.85;;;16.38;;
77586;SDS011;66744;49.716;17.158;2023-01-20T00:28:38;21.38;;;16.50;;
77586;SDS011;66744;49.716;17.158;2023-01-20T00:28:44;21.40;;;16.02;;
77586;SDS011;66744;49.716;17.158;2023-01-20T00:28:54;22.24;;;16.16;;
77586;SDS011;66744;49.716;17.158;2023-01-20T00:29:02;22.09;;;15.97;;
77586;SDS011;66744;49.716;17.158;2023-01-20T00:29:08;22.33;;;16.20;;
77586;SDS011;66744;49.716;17.158;2023-01-20T00:29:14;22.40;;;15.95;;
77586;SDS011;66744;49.716;17.158;2023-01-20T00:29:20;22.35;;;15.88;;
77586;SDS011;66744;49.716;17.158;2023-01-20T00:29:27;21.56;;;15.58;;
77586;SDS011;66744;49.716;17.158;2023-01-20T00:29:33;21.15;;;15.35;;
77586;SDS011;66744;49.716;17.158;2023-01-20T00:29:39;21.27;;;15.10;;
77586;SDS011;66744;49.716;17.158;2023-01-20T00:29:49;21.70;;;15.24;;
77586;SDS011;66744;49.716;17.158;2023-01-20T00:29:56;21.17;;;14.83;;
77586;SDS011;66744;49.716;17.158;2023-01-20T00:30:02;21.02;;;14.52;;
77586;SDS011;66744;49.716;17.158;2023-01-20T00:30:09;20.56;;;14.68;;
77586;SDS011;66744;49.716;17.158;2023-01-20T00:30:16;20.00;;;14.88;;
77586;SDS011;66744;49.716;17.158;2023-01-20T00:30:22;19.58;;;15.07;;
77586;SDS011;66744;49.716;17.158;2023-01-20T00:30:29;20.13;;;15.68;;
77586;SDS011;66744;49.716;17.158;2023-01-20T00:30:35;20.30;;;15.88;;
77586;SDS011;66744;49.716;17.158;2023-01-20T00:30:41;20.55;;;15.93;;
77586;SDS011;66744;49.716;17.158;2023-01-20T00:30:48;20.40;;;15.98;;
77586;SDS011;66744;49.716;17.158;2023-01-20T00:30:54;21.45;;;16.27;;
77586;SDS011;66744;49.716;17.158;2023-01-20T00:31:26;21.49;;;16.21;;
77586;SDS011;66744;49.716;17.158;2023-01-20T00:31:35;22.40;;;16.02;;
77586;SDS011;66744;49.716;17.158;2023-01-20T00:31:41;23.38;;;15.93;;
77586;SDS011;66744;49.716;17.158;2023-01-20T00:31:47;22.70;;;15.80;;
77586;SDS011;66744;49.716;17.158;2023-01-20T00:31:53;23.52;;;16.02;;
77586;SDS011;66744;49.716;17.158;2023-01-20T00:32:00;24.75;;;16.33;;
77586;SDS011;66744;49.716;17.158;2023-01-20T00:32:07;23.02;;;15.96;;
77586;SDS011;66744;49.716;17.158;2023-01-20T00:32:13;23.30;;;16.06;;
77586;SDS011;66744;49.716;17.158;2023-01-20T00:32:19;23.08;;;15.80;;
77586;SDS011;66744;49.716;17.158;2023-01-20T00:32:25;21.23;;;15.63;;
77586;SDS011;66744;49.716;17.158;2023-01-20T00:32:35;19.90;;;15.93;;
77586;SDS011;66744;49.716;17.158;2023-01-20T00:32:42;20.41;;;16.37;;
77586;SDS011;66744;49.716;17.158;2023-01-20T00:32:50;21.10;;;16.46;;
77586;SDS011;66744;49.716;17.158;2023-01-20T00:32:56;21.18;;;16.18;;
77586;SDS011;66744;49.716;17.158;2023-01-20T00:33:03;21.05;;;15.25;;
77586;SDS011;66744;49.716;17.158;2023-01-20T00:33:09;20.44;;;14.76;;
77586;SDS011;66744;49.716;17.158;2023-01-20T00:33:15;20.30;;;15.10;;
77586;SDS011;66744;49.716;17.158;2023-01-20T00:33:21;19.63;;;15.43;;
77586;SDS011;66744;49.716;17.158;2023-01-20T00:33:28;19.63;;;15.52;;
77586;SDS011;66744;49.716;17.158;2023-01-20T00:33:35;20.28;;;15.74;;
77586;SDS011;66744;49.716;17.158;2023-01-20T00:33:41;20.02;;;15.75;;
77586;SDS011;66744;49.716;17.158;2023-01-20T00:33:48;20.94;;;15.64;;
77586;SDS011;66744;49.716;17.158;2023-01-20T00:33:57;21.55;;;15.57;;
77586;SDS011;66744;49.716;17.158;2023-01-20T00:34:04;21.98;;;15.90;;
77586;SDS011;66744;49.716;17.158;2023-01-20T00:34:10;23.14;;;16.68;;
77586;SDS011;66744;49.716;17.158;2023-01-20T00:34:16;22.48;;;16.42;;
77586;SDS011;66744;49.716;17.158;2023-01-20T00:34:23;23.20;;;16.48;;
77586;SDS011;66744;49.716;17.158;2023-01-20T00:34:29;23.17;;;16.70;;
77586;SDS011;66744;49.716;17.158;2023-01-20T00:34:35;23.14;;;16.92;;
77586;SDS011;66744;49.716;17.158;2023-01-20T00:34:41;22.67;;;16.83;;
77586;SDS011;66744;49.716;17.158;2023-01-20T00:34:48;23.30;;;17.98;;
77586;SDS011;66744;49.716;17.158;2023-01-20T00:34:54;22.85;;;18.00;;
77586;SDS011;66744;49.716;17.158;2023-01-20T00:35:00;22.14;;;17.60;;
77586;SDS011;66744;49.716;17.158;2023-01-20T00:35:06;21.85;;;17.38;;
77586;SDS011;66744;49.716;17.158;2023-01-20T00:35:13;22.88;;;17.50;;
77586;SDS011;66744;49.716;17.158;2023-01-20T00:35:19;23.86;;;17.04;;
77586;SDS011;66744;49.716;17.158;2023-01-20T00:35:25;24.58;;;17.60;;
77586;SDS011;66744;49.716;17.158;2023-01-20T00:35:32;25.25;;;17.77;;
77586;SDS011;66744;49.716;17.158;2023-01-20T00:35:38;25.17;;;17.50;;
77586;SDS011;66744;49.716;17.158;2023-01-20T00:35:44;24.44;;;17.30;;
77586;SDS011;66744;49.716;17.158;2023-01-20T00:35:50;23.35;;;16.92;;
77586;SDS011;66744;49.716;17.158;2023-01-20T00:35:56;23.80;;;16.60;;
77586;SDS011;66744;49.716;17.158;2023-01-20T00:36:03;23.50;;;16.25;;
77586;SDS011;66744;49.716;17.158;2023-01-20T00:36:09;23.72;;;16.12;;
77586;SDS011;66744;49.716;17.158;2023-01-20T00:36:17;24.44;;;16.10;;
77586;SDS011;66744;49.716;17.158;2023-01-20T00:36:25;23.60;;;15.90;;
77586;SDS011;66744;49.716;17.158;2023-01-20T00:36:33;23.87;;;16.32;;
77586;SDS011;66744;49.716;17.158;2023-01-20T00:36:40;24.02;;;16.24;;
77586;SDS011;66744;49.716;17.158;2023-01-20T00:36:46;23.42;;;16.25;;
77586;SDS011;66744;49.716;17.158;2023-01-20T00:36:52;24.02;;;16.70;;
77586;SDS011;66744;49.716;17.158;2023-01-20T00:36:58;25.20;;;17.10;;
77586;SDS011;66744;49.716;17.158;2023-01-20T00:37:04;25.42;;;17.35;;
77586;SDS011;66744;49.716;17.158;2023-01-20T00:37:11;26.90;;;18.02;;
77586;SDS011;66744;49.716;17.158;2023-01-20T00:37:17;27.33;;;18.33;;
77586;SDS011;66744;49.716;17.158;2023-01-20T00:37:23;27.13;;;18.20;;
77586;SDS011;66744;49.716;17.158;2023-01-20T00:37:29;26.30;;;18.36;;
77586;SDS011;66744;49.716;17.158;2023-01-20T00:37:36;24.88;;;17.83;;
77586;SDS011;66744;49.716;17.158;2023-01-20T00:37:42;23.67;;;17.98;;
77586;SDS011;66744;49.716;17.158;2023-01-20T00:37:48;23.14;;;18.00;;
77586;SDS011;66744;49.716;17.158;2023-01-20T00:37:55;22.85;;;18.10;;
77586;SDS011;66744;49.716;17.158;2023-01-20T00:38:01;23.58;;;18.00;;
77586;SDS011;66744;49.716;17.158;2023-01-20T00:38:07;24.08;;;18.50;;
77586;SDS011;66744;49.716;17.158;2023-01-20T00:38:14;23.52;;;18.12;;
77586;SDS011;66744;49.716;17.158;2023-01-20T00:38:22;23.68;;;17.85;;
77586;SDS011;66744;49.716;17.158;2023-01-20T00:38:28;23.95;;;17.90;;
77586;SDS011;66744;49.716;17.158;2023-01-20T00:38:34;23.08;;;17.30;;
77586;SDS011;66744;49.716;17.158;2023-01-20T00:38:41;23.66;;;17.64;;
77586;SDS011;66744;49.716;17.158;2023-01-20T00:38:48;23.54;;;17.64;;
77586;SDS011;66744;49.716;17.158;2023-01-20T00:38:54;22.90;;;17.88;;
77586;SDS011;66744;49.716;17.158;2023-01-20T00:39:01;22.58;;;17.96;;
77586;SDS011;66744;49.716;17.158;2023-01-20T00:39:08;22.52;;;18.14;;
77586;SDS011;66744;49.716;17.158;2023-01-20T00:39:14;22.83;;;18.13;;
77586;SDS011;66744;49.716;17.158;2023-01-20T00:39:21;23.64;;;18.24;;
77586;SDS011;66744;49.716;17.158;2023-01-20T00:39:27;24.75;;;18.35;;
77586;SDS011;66744;49.716;17.158;2023-01-20T00:39:33;25.05;;;18.15;;